WetterOnline ( https://www.wetteronline.de )

Wetter aktuell Grävenwiesbach

Aktuelles Wetter: Gießen (195m)

6-stündlich | Neueste Meldungen
Ortszeit Temperatur Wetter
Sa, 01.10. 8:00 8.4° C Regen
Sa, 01.10. 2:00 7.6° C bewölkt
Fr, 30.09. 20:00 10.2° C wolkenlos
Fr, 30.09. 14:00 13.9° C wolkenlos
Fr, 30.09. 8:00 2.0° C Nebel
Fr, 30.09. 2:00 4.4° C Nebel
Do, 29.09. 20:00 9.0° C wolkenlos
Do, 29.09. 14:00 11.9° C wolkig
Ortszeit Temperatur Wetter
Sa, 01.10. 13:10 12.2° C leichter Regen
Sa, 01.10. 13:00 11.9° C Sprühregen
Sa, 01.10. 12:50 11.9° C Sprühregen
Sa, 01.10. 12:40 11.8° C Sprühregen
Sa, 01.10. 12:30 11.6° C bedeckt
Sa, 01.10. 12:20 11.6° C bedeckt
Sa, 01.10. 12:00 11.0° C Sprühregen
Sa, 01.10. 11:30 10.7° C bedeckt
Sa, 01.10. 11:00 10.3° C bewölkt
Sa, 01.10. 10:30 9.4° C leichter Regen
Ortszeit Relative Feuchte Sichtweite
Sa, 01.10. 8:00 95% 9 km
Sa, 01.10. 2:00 85% 45 km
Fr, 30.09. 20:00 77% 50 km
Fr, 30.09. 14:00 66% 40 km
Fr, 30.09. 8:00 100% 100 m
Fr, 30.09. 2:00 98% 19 km
Do, 29.09. 20:00 84% 45 km
Do, 29.09. 14:00 69% 29 km
Ortszeit Relative Feuchte Sichtweite
Sa, 01.10. 13:10 94% -
Sa, 01.10. 13:00 91% 35 km
Sa, 01.10. 12:50 91% -
Sa, 01.10. 12:40 91% -
Sa, 01.10. 12:30 93% >70 km
Sa, 01.10. 12:20 93% -
Sa, 01.10. 12:00 94% 10 km
Sa, 01.10. 11:30 92% 55 km
Sa, 01.10. 11:00 92% 55 km
Sa, 01.10. 10:30 95% 11 km
Ortszeit Niederschlagsmenge Niederschlagsart
Sa, 01.10. 8:00 4 l/m2 in 12 Std. Regen
Sa, 01.10. 2:00 0.0 l/m2 in 6 Std. -
Fr, 30.09. 20:00 0.0 l/m2 in 12 Std. -
Fr, 30.09. 14:00 0.0 l/m2 in 6 Std. -
Fr, 30.09. 8:00 0.0 l/m2 in 12 Std. -
Fr, 30.09. 2:00 0.0 l/m2 in 6 Std. -
Do, 29.09. 20:00 0.1 l/m2 in 12 Std. -
Do, 29.09. 14:00 0.1 l/m2 in 6 Std. -
Ortszeit Niederschlagsmenge Niederschlagsart
Sa, 01.10. 13:10 keine Meldung -
Sa, 01.10. 13:00 <0.05 l/m2 in 1 Std. Regen
Sa, 01.10. 12:50 keine Meldung -
Sa, 01.10. 12:40 keine Meldung -
Sa, 01.10. 12:30 <0.05 l/m2 in 1 Std. Schneeregen
Sa, 01.10. 12:20 keine Meldung -
Sa, 01.10. 12:00 0.1 l/m2 in 1 Std. Regen
Sa, 01.10. 11:30 <0.05 l/m2 in 1 Std. Schnee
Sa, 01.10. 11:00 0.7 l/m2 in 1 Std. Regen
Sa, 01.10. 10:30 0.1 l/m2 in 1 Std. -
Ortszeit Stärke Spitze Richtung
km/h Bft. km/h Grad Sektor
Sa, 01.10. 8:00 17 3 33 150° SO
Sa, 01.10. 2:00 4 1 11 150° SO
Fr, 30.09. 20:00 7 2 22 220° SW
Fr, 30.09. 14:00 4 1 14 230° SW
Fr, 30.09. 8:00 4 1 7 250° W
Fr, 30.09. 2:00 4 1 11 350° N
Do, 29.09. 20:00 0 0 14 - -
Do, 29.09. 14:00 4 1 11 80° O
Ortszeit Stärke Spitze Richtung
km/h Bft. km/h Grad Sektor
Sa, 01.10. 13:10 18 3 - 210° SW
Sa, 01.10. 13:00 18 3 25 220° SW
Sa, 01.10. 12:50 18 3 - 220° SW
Sa, 01.10. 12:40 14 3 - 210° SW
Sa, 01.10. 12:30 17 3 24 200° S
Sa, 01.10. 12:20 17 3 - 200° S
Sa, 01.10. 12:00 20 4 31 210° SW
Sa, 01.10. 11:30 19 3 30 200° S
Sa, 01.10. 11:00 15 3 22 190° S
Sa, 01.10. 10:30 13 3 20 170° S
Ortszeit Untergrenze Bedeckung Gattung
total tief tief mittel hoch
Sa, 01.10. 8:00 510 m 7/8 7/8 - - -
Sa, 01.10. 2:00 6300 m 8/8 7/8 - - -
Fr, 30.09. 20:00 - 0/8 0/8 - - -
Fr, 30.09. 14:00 - 0/8 0/8 - - -
Fr, 30.09. 8:00 <30 m 8/8 0/8 - - -
Fr, 30.09. 2:00 - 0/8 0/8 - - -
Do, 29.09. 20:00 - 0/8 0/8 - - -
Do, 29.09. 14:00 6600 m 8/8 8/8 - - -
Ortszeit Bedeckungsgrad in Achtel und Wolkenuntergrenze
Sa, 01.10. 13:10 8
Sa, 01.10. 13:00 7(420m)
Sa, 01.10. 12:50 7(420m)
Sa, 01.10. 12:40 8
Sa, 01.10. 12:30 8(420m)
Sa, 01.10. 12:20 8(420m)
Sa, 01.10. 12:00 7(450m)
Sa, 01.10. 11:30 3(420m) 8(600m)
Sa, 01.10. 11:00 6(450m) 7(630m)
Sa, 01.10. 10:30 1(270m) 7(450m)
Ortszeit Luftdruck NN (hPa) Tendenz (hPa in 3 Std.)
Sa, 01.10. 8:00 1008 - 1,0
Sa, 01.10. 2:00 1012 - 1,0
Fr, 30.09. 20:00 1012 + 0,2
Fr, 30.09. 14:00 1012 - 0,5
Fr, 30.09. 8:00 1012 + 1,7
Fr, 30.09. 2:00 1009 + 0,9
Do, 29.09. 20:00 1006 + 1,6
Do, 29.09. 14:00 1003 + 0,5
Ortszeit Luftdruck NN (hPa) Tendenz (hPa in 3 Std.)
Sa, 01.10. 13:10 1007 keine Meldung
Sa, 01.10. 13:00 1007 + 0,5
Sa, 01.10. 12:50 1007 keine Meldung
Sa, 01.10. 12:40 1007 keine Meldung
Sa, 01.10. 12:30 1007 0,0
Sa, 01.10. 12:20 1007 keine Meldung
Sa, 01.10. 12:00 1007 - 0,5
Sa, 01.10. 11:30 1007 - 0,9
Sa, 01.10. 11:00 1007 - 1,2
Sa, 01.10. 10:30 1007 - 0,9
Ortszeit Schneehöhe (cm)
Sa, 01.10. 8:00 0
Sa, 01.10. 2:00 0
Fr, 30.09. 20:00 0
Fr, 30.09. 14:00 0
Fr, 30.09. 8:00 0
Fr, 30.09. 2:00 0
Do, 29.09. 20:00 0
Do, 29.09. 14:00 0
Ortszeit Schneehöhe (cm)
Sa, 01.10. 13:10 0
Sa, 01.10. 13:00 0
Sa, 01.10. 12:50 0
Sa, 01.10. 12:40 0
Sa, 01.10. 12:30 0
Sa, 01.10. 12:20 0
Sa, 01.10. 12:00 0
Sa, 01.10. 11:30 0
Sa, 01.10. 11:00 0
Sa, 01.10. 10:30 0
Link zu dieser Seite / Seite empfehlen

Das Wetter in ...